createdAt,value
2019-05-17T00:54:40.412Z,96966.95
2019-05-17T00:57:08.715Z,96960.05
2019-05-17T00:59:37.074Z,96956.11
2019-05-17T01:02:06.960Z,96951.09
2019-05-17T01:04:36.808Z,96953.23
2019-05-17T01:07:06.953Z,96950.55
2019-05-17T01:09:36.609Z,96948.70
2019-05-17T01:12:07.140Z,96947.45
2019-05-17T01:14:37.217Z,96941.84
2019-05-17T01:17:07.167Z,96943.58
2019-05-17T01:19:36.547Z,96939.05
2019-05-17T01:22:07.312Z,96943.74
2019-05-17T01:24:36.839Z,96936.84
2019-05-17T01:27:06.612Z,96936.84
2019-05-17T01:29:36.382Z,96942.55
2019-05-17T01:32:06.806Z,96941.49
2019-05-17T01:34:37.424Z,96938.86
2019-05-17T01:37:06.501Z,96935.05
2019-05-17T01:39:37.269Z,96939.73
2019-05-17T01:42:06.800Z,96932.41
2019-05-17T01:44:36.771Z,96933.45
2019-05-17T01:47:07.314Z,96929.98
2019-05-17T01:49:36.361Z,96932.41
2019-05-17T01:52:07.307Z,96933.66
2019-05-17T01:54:36.274Z,96929.86
2019-05-17T01:57:07.135Z,96933.33
2019-05-17T01:59:37.111Z,96930.22
2019-05-17T02:02:07.129Z,96929.97
2019-05-17T02:04:37.376Z,96924.06
2019-05-17T02:07:06.874Z,96919.55
2019-05-17T02:09:40.671Z,96919.59
2019-05-17T02:12:06.686Z,96920.47
2019-05-17T02:14:37.274Z,96915.52
2019-05-17T02:17:06.861Z,96912.41
2019-05-17T02:19:37.195Z,96914.34
2019-05-17T02:22:07.430Z,96913.00
2019-05-17T02:24:37.042Z,96911.77
2019-05-17T02:27:05.713Z,96905.53
2019-05-17T02:29:34.079Z,96907.91
2019-05-17T02:32:03.781Z,96915.88
2019-05-17T02:34:33.671Z,96916.68
2019-05-17T02:37:03.036Z,96913.60
2019-05-17T02:39:32.792Z,96911.17
2019-05-17T02:42:02.824Z,96917.80
2019-05-17T02:44:33.527Z,96908.75
2019-05-17T02:47:03.157Z,96913.45
2019-05-17T02:49:33.172Z,96901.70
2019-05-17T02:52:03.296Z,96906.19
2019-05-17T02:54:32.760Z,96908.72
2019-05-17T02:57:03.261Z,96906.19
2019-05-17T02:59:33.135Z,96902.71
2019-05-17T03:02:03.581Z,96903.25
2019-05-17T03:04:32.667Z,96904.08
2019-05-17T03:07:03.834Z,96900.61
2019-05-17T03:09:33.532Z,96897.36
2019-05-17T03:12:03.370Z,96893.88
2019-05-17T03:14:32.781Z,96895.16
2019-05-17T03:17:03.387Z,96894.39
2019-05-17T03:19:32.757Z,96891.53
2019-05-17T03:22:06.764Z,96883.83
2019-05-17T03:24:33.316Z,96891.73
2019-05-17T03:27:02.978Z,96890.66
2019-05-17T03:29:33.456Z,96885.84
2019-05-17T03:32:08.057Z,96885.84
2019-05-17T03:34:36.926Z,96892.56
2019-05-17T03:37:06.256Z,96899.00
2019-05-17T03:39:33.343Z,96901.17
2019-05-17T03:42:02.617Z,96899.94
2019-05-17T03:44:33.237Z,96895.34
2019-05-17T03:47:02.380Z,96895.12
2019-05-17T03:49:33.079Z,96901.94
2019-05-17T03:52:02.771Z,96902.73
2019-05-17T03:54:32.473Z,96903.82
2019-05-17T03:57:02.835Z,96910.95
2019-05-17T03:59:33.432Z,96898.12
2019-05-17T04:02:03.224Z,96901.75
2019-05-17T04:04:33.171Z,96902.77
2019-05-17T04:07:03.345Z,96898.18
2019-05-17T04:09:32.869Z,96898.18
2019-05-17T04:12:02.845Z,96907.36
2019-05-17T04:14:33.522Z,96913.63
2019-05-17T04:17:03.092Z,96910.60
2019-05-17T04:19:33.724Z,96907.23
2019-05-17T04:22:03.513Z,96909.81
2019-05-17T04:24:32.326Z,96913.25
2019-05-17T04:27:03.571Z,96919.62
2019-05-17T04:29:33.187Z,96908.47
2019-05-17T04:32:03.977Z,96915.83
2019-05-17T04:34:33.561Z,96912.64
2019-05-17T04:37:04.008Z,96915.19
2019-05-17T04:39:32.685Z,96909.47
2019-05-17T04:42:03.682Z,96900.58
2019-05-17T04:44:32.262Z,96908.22
2019-05-17T04:47:03.167Z,96911.11
2019-05-17T04:49:33.058Z,96909.70
2019-05-17T04:52:03.594Z,96917.59
2019-05-17T04:54:33.343Z,96910.86
2019-05-17T04:57:02.653Z,96912.88
2019-05-17T04:59:33.794Z,96907.00
2019-05-17T05:02:03.131Z,96909.44
2019-05-17T05:04:33.804Z,96909.31
2019-05-17T05:07:03.081Z,96907.19
2019-05-17T05:09:32.314Z,96908.23
2019-05-17T05:12:05.594Z,96901.02
2019-05-17T05:14:32.865Z,96902.59
2019-05-17T05:17:02.569Z,96901.88
2019-05-17T05:19:32.899Z,96899.41
2019-05-17T05:22:04.640Z,96893.81
2019-05-17T05:24:31.576Z,96896.44
2019-05-17T05:27:02.449Z,96894.01
2019-05-17T05:29:32.066Z,96890.06
2019-05-17T05:32:02.417Z,96889.95
2019-05-17T05:34:32.245Z,96888.78
2019-05-17T05:37:02.122Z,96890.56
2019-05-17T05:39:31.954Z,96892.16
2019-05-17T05:42:08.074Z,96889.63
2019-05-17T05:44:32.069Z,96879.08
2019-05-17T05:47:02.121Z,96882.39
2019-05-17T05:49:32.043Z,96886.29
2019-05-17T05:52:01.979Z,96883.55
2019-05-17T05:54:31.957Z,96886.73
2019-05-17T05:57:02.302Z,96876.77
2019-05-17T05:59:31.719Z,96883.09
2019-05-17T06:02:01.802Z,96881.20
2019-05-17T06:04:31.870Z,96885.81
2019-05-17T06:07:02.752Z,96876.87
2019-05-17T06:09:31.834Z,96871.77
2019-05-17T06:12:02.438Z,96866.27
2019-05-17T06:14:32.349Z,96867.92
2019-05-17T06:17:02.934Z,96871.98
2019-05-17T06:19:31.513Z,96864.08
2019-05-17T06:22:02.507Z,96864.89
2019-05-17T06:24:31.918Z,96870.99
2019-05-17T06:27:01.934Z,96863.97
2019-05-17T06:29:32.594Z,96860.75
2019-05-17T06:32:02.480Z,96858.84
2019-05-17T06:34:32.701Z,96862.60
2019-05-17T06:37:02.226Z,96860.13
2019-05-17T06:39:32.764Z,96861.26
2019-05-17T06:42:02.747Z,96855.52
2019-05-17T06:44:32.513Z,96855.52
2019-05-17T06:47:02.624Z,96850.44
2019-05-17T06:49:31.869Z,96854.77
2019-05-17T06:52:02.346Z,96856.61
2019-05-17T06:54:30.388Z,96849.59
2019-05-17T06:56:58.701Z,96843.42
2019-05-17T07:09:12.831Z,96843.55
2019-05-17T07:11:41.232Z,96830.63
2019-05-17T07:14:09.897Z,96832.34
2019-05-17T07:16:39.687Z,96834.81
2019-05-17T07:19:10.305Z,96823.80
2019-05-17T07:21:40.364Z,96820.87
2019-05-17T07:24:10.080Z,96823.37
2019-05-17T07:26:39.356Z,96822.56
2019-05-17T07:29:09.880Z,96818.36
2019-05-17T07:31:40.249Z,96819.19
2019-05-17T07:34:09.270Z,96818.78
2019-05-17T07:36:39.721Z,96812.61
2019-05-17T07:39:10.558Z,96806.09
2019-05-17T07:41:40.037Z,96807.35
2019-05-17T07:44:09.954Z,96801.47
2019-05-17T07:46:40.129Z,96803.53
2019-05-17T07:49:10.628Z,96790.92
2019-05-17T07:51:39.601Z,96792.22
2019-05-17T07:54:10.281Z,96790.41
2019-05-17T07:56:40.156Z,96783.05
2019-05-17T07:59:09.530Z,96782.83
2019-05-17T08:01:38.220Z,96774.80
2019-05-17T08:04:06.587Z,96776.84
2019-05-17T08:06:35.269Z,96770.66
2019-05-17T08:09:05.827Z,96766.91
2019-05-17T08:11:34.461Z,96766.87
2019-05-17T08:14:02.786Z,96760.36
2019-05-17T08:16:31.111Z,96753.69
2019-05-17T08:19:00.326Z,96754.20
2019-05-17T08:21:30.498Z,96747.25
2019-05-17T08:24:00.076Z,96749.81
2019-05-17T08:26:29.716Z,96750.19
2019-05-17T08:29:00.354Z,96749.48
2019-05-17T08:31:29.555Z,96749.09
2019-05-17T08:34:00.027Z,96742.83
2019-05-17T08:36:29.880Z,96736.91
2019-05-17T08:38:59.657Z,96736.84
2019-05-17T08:41:30.825Z,96742.86
2019-05-17T08:44:00.454Z,96734.84
2019-05-17T08:46:30.356Z,96731.05
2019-05-17T08:49:00.289Z,96730.56
2019-05-17T08:51:30.457Z,96727.14
2019-05-17T08:53:59.995Z,96720.52
2019-05-17T08:56:30.886Z,96721.84
2019-05-17T08:59:00.723Z,96717.06
2019-05-17T09:01:30.184Z,96712.89
2019-05-17T09:03:59.845Z,96716.28
2019-05-17T09:06:30.108Z,96709.98
2019-05-17T09:09:00.772Z,96709.61
2019-05-17T09:11:30.241Z,96706.06
2019-05-17T09:14:01.880Z,96707.20
2019-05-17T09:16:30.695Z,96713.63
2019-05-17T09:19:00.498Z,96711.34
2019-05-17T09:21:31.434Z,96703.22
2019-05-17T09:23:59.793Z,96697.80
2019-05-17T09:26:29.440Z,96697.33
2019-05-17T09:29:01.280Z,96689.52
2019-05-17T09:31:29.855Z,96689.83
2019-05-17T09:34:00.184Z,96698.33
2019-05-17T09:36:30.274Z,96696.66
2019-05-17T09:39:00.088Z,96694.14
2019-05-17T09:41:29.328Z,96667.98
2019-05-17T09:44:09.544Z,96686.38
2019-05-17T09:46:30.067Z,96679.05
2019-05-17T09:49:00.896Z,96683.41
2019-05-17T09:51:30.183Z,96673.99
2019-05-17T09:54:00.137Z,96663.45
2019-05-17T09:56:30.090Z,96660.48
2019-05-17T09:59:00.364Z,96663.06
2019-05-17T10:01:30.397Z,96663.37
2019-05-17T10:03:59.849Z,96658.48
2019-05-17T10:06:28.355Z,96665.19
2019-05-17T10:08:56.817Z,96655.97
2019-05-17T10:11:25.296Z,96656.02
2019-05-17T10:13:53.601Z,96659.42
2019-05-17T10:16:22.200Z,96658.24
2019-05-17T10:18:50.496Z,96653.27
2019-05-17T10:21:19.893Z,96651.50
2019-05-17T10:23:49.713Z,96644.20
2019-05-17T10:26:19.694Z,96645.45
2019-05-17T10:28:48.317Z,96639.81
2019-05-17T10:31:16.861Z,96639.80
2019-05-17T10:33:45.326Z,96633.77
2019-05-17T10:36:13.971Z,96635.13
2019-05-17T10:38:42.374Z,96641.57
2019-05-17T10:41:10.961Z,96630.22
2019-05-17T10:43:39.422Z,96640.98
2019-05-17T10:46:10.337Z,96635.70
2019-05-17T10:48:40.894Z,96636.28
2019-05-17T10:51:09.582Z,96630.97
2019-05-17T10:53:40.140Z,96626.50
2019-05-17T10:56:10.004Z,96622.00
2019-05-17T10:58:39.967Z,96630.52
2019-05-17T11:01:10.303Z,96629.86
2019-05-17T11:03:39.752Z,96619.69
2019-05-17T11:06:10.683Z,96623.35
2019-05-17T11:08:38.887Z,96621.92
2019-05-17T11:11:07.284Z,96611.48
2019-05-17T11:13:35.941Z,96613.24
2019-05-17T11:16:04.332Z,96612.41
2019-05-17T11:18:33.021Z,96612.41
2019-05-17T11:21:02.693Z,96607.33
2019-05-17T11:23:30.968Z,96607.52
2019-05-17T11:25:59.367Z,96603.02
2019-05-17T11:28:27.781Z,96604.66
2019-05-17T11:30:56.076Z,96601.29
2019-05-17T11:33:24.579Z,96601.41
2019-05-17T11:35:53.451Z,96592.91
2019-05-17T11:38:21.941Z,96589.16
2019-05-17T11:40:50.405Z,96591.11
2019-05-17T11:43:18.879Z,96593.56
2019-05-17T11:45:47.637Z,96594.42
2019-05-17T11:48:16.095Z,96587.77
2019-05-17T11:50:44.789Z,96576.14
2019-05-17T11:53:13.542Z,96583.60
2019-05-17T11:55:41.990Z,96585.61
2019-05-17T11:58:10.504Z,96585.27
2019-05-17T12:00:39.053Z,96593.27
2019-05-17T12:03:07.680Z,96585.77
2019-05-17T12:05:36.289Z,96581.93
2019-05-17T12:08:08.620Z,96582.09
2019-05-17T12:10:36.927Z,96581.59
2019-05-17T12:13:05.832Z,96578.81
2019-05-17T12:15:44.561Z,96574.98
2019-05-17T12:18:04.589Z,96572.45
2019-05-17T12:20:32.997Z,96569.32
2019-05-17T12:23:01.321Z,96568.57
2019-05-17T12:25:29.749Z,96567.14
2019-05-17T12:27:58.096Z,96568.33
2019-05-17T12:30:26.966Z,96562.26
2019-05-17T12:32:55.385Z,96566.12
2019-05-17T12:35:24.724Z,96562.93
2019-05-17T12:37:53.168Z,96560.36
2019-05-17T12:40:21.677Z,96556.81
2019-05-17T12:42:50.029Z,96553.77
2019-05-17T12:45:19.019Z,96555.78
2019-05-17T12:47:47.462Z,96560.36
2019-05-17T12:50:15.977Z,96554.81
2019-05-17T12:52:44.583Z,96554.73
2019-05-17T12:55:13.189Z,96549.30
2019-05-17T12:57:41.574Z,96549.17
2019-05-17T13:00:10.085Z,96543.94
2019-05-17T13:02:38.356Z,96547.23
2019-05-17T13:05:07.096Z,96541.55
2019-05-17T13:07:35.407Z,96542.34
2019-05-17T13:10:05.685Z,96543.23
2019-05-17T13:12:33.965Z,96538.85
2019-05-17T13:15:02.320Z,96540.58
2019-05-17T13:17:30.617Z,96540.35
2019-05-17T13:19:59.016Z,96533.90
2019-05-17T13:22:27.494Z,96536.95
2019-05-17T13:24:55.979Z,96538.30
2019-05-17T13:27:24.273Z,96538.31
2019-05-17T13:29:52.688Z,96535.84
2019-05-17T13:32:21.154Z,96538.39
2019-05-17T13:34:49.714Z,96541.43
2019-05-17T13:37:18.162Z,96536.50
2019-05-17T13:39:46.539Z,96528.61
2019-05-17T13:42:14.888Z,96536.31
2019-05-17T13:44:43.383Z,96536.05
2019-05-17T13:47:11.775Z,96528.67
2019-05-17T13:49:40.532Z,96529.52
2019-05-17T13:52:08.870Z,96521.69
2019-05-17T13:54:38.779Z,96519.63
2019-05-17T13:57:07.196Z,96515.36
2019-05-17T13:59:35.503Z,96514.75
2019-05-17T14:02:03.989Z,96521.80
2019-05-17T14:04:32.352Z,96514.66
2019-05-17T14:07:00.766Z,96515.73
2019-05-17T14:09:29.158Z,96522.02
2019-05-17T14:11:57.836Z,96519.13
2019-05-17T14:14:26.272Z,96519.51
2019-05-17T14:16:54.792Z,96534.81
2019-05-17T14:19:23.231Z,96539.80
2019-05-17T14:21:51.603Z,96538.68
2019-05-17T14:24:20.113Z,96554.92
2019-05-17T14:26:48.470Z,96575.61
2019-05-17T14:29:16.813Z,96605.80
2019-05-17T14:31:45.703Z,96627.66
2019-05-17T14:34:14.116Z,96611.91
2019-05-17T14:36:42.441Z,96589.85
2019-05-17T14:39:10.901Z,96576.55
2019-05-17T14:41:39.205Z,96551.88
2019-05-17T14:44:07.602Z,96556.78
2019-05-17T14:46:36.016Z,96547.32
2019-05-17T14:49:05.904Z,96542.62
2019-05-17T14:51:34.299Z,96536.86
2019-05-17T14:54:02.928Z,96544.25
2019-05-17T14:56:31.368Z,96539.80
2019-05-17T14:58:59.724Z,96545.28
2019-05-17T15:01:28.016Z,96529.83
2019-05-17T15:03:56.448Z,96539.22
2019-05-17T15:06:24.761Z,96536.31
2019-05-17T15:08:53.299Z,96532.69
2019-05-17T15:11:21.641Z,96536.77
2019-05-17T15:13:50.204Z,96534.20
2019-05-17T15:16:18.719Z,96533.92
2019-05-17T15:18:47.353Z,96545.54
2019-05-17T15:21:15.810Z,96559.21
2019-05-17T15:23:44.434Z,96582.48
2019-05-17T15:26:12.833Z,96583.42
2019-05-17T15:28:41.180Z,96580.38
2019-05-17T15:31:09.558Z,96580.81
2019-05-17T15:33:37.979Z,96585.14
2019-05-17T15:36:06.347Z,96587.81
2019-05-17T15:38:34.749Z,96586.94
2019-05-17T15:41:03.030Z,96581.43
2019-05-17T15:43:31.360Z,96583.81
2019-05-17T15:45:59.659Z,96583.72
2019-05-17T15:48:27.990Z,96592.33
2019-05-17T15:50:56.284Z,96594.16
2019-05-17T15:53:24.693Z,96599.25
2019-05-17T15:55:53.064Z,96594.37
2019-05-17T15:58:21.579Z,96583.45
2019-05-17T16:00:49.905Z,96590.95
2019-05-17T16:03:18.194Z,96589.94
2019-05-17T16:05:46.618Z,96584.75
2019-05-17T16:08:14.994Z,96588.16
2019-05-17T16:10:43.467Z,96586.01
2019-05-17T16:13:11.834Z,96589.37
2019-05-17T16:15:40.171Z,96585.32
2019-05-17T16:18:08.481Z,96580.58
2019-05-17T16:20:37.368Z,96571.39
2019-05-17T16:23:05.719Z,96574.14
2019-05-17T16:25:34.172Z,96584.03
2019-05-17T16:28:02.559Z,96590.31
2019-05-17T16:30:31.133Z,96574.66
2019-05-17T16:33:01.355Z,96583.23
2019-05-17T16:35:31.506Z,96576.59
2019-05-17T16:38:00.088Z,96574.14
2019-05-17T16:40:28.419Z,96581.73
2019-05-17T16:42:56.919Z,96578.50
2019-05-17T16:45:25.450Z,96565.63
2019-05-17T16:47:56.559Z,96559.24
2019-05-17T16:50:24.951Z,96548.21
2019-05-17T16:53:05.549Z,96547.52
2019-05-17T16:55:26.008Z,96540.47
2019-05-17T16:57:54.014Z,96546.33
2019-05-17T17:00:28.880Z,96550.65
2019-05-17T17:02:57.320Z,96560.28
2019-05-17T17:05:27.502Z,96576.05
2019-05-17T17:07:56.978Z,96573.63
2019-05-17T17:10:25.713Z,96579.22
2019-05-17T17:12:54.062Z,96575.99
2019-05-17T17:15:22.832Z,96579.49
2019-05-17T17:17:51.185Z,96584.79
2019-05-17T17:20:20.116Z,96587.35
2019-05-17T17:22:48.436Z,96581.13
2019-05-17T17:25:17.091Z,96570.84
2019-05-17T17:27:45.465Z,96576.64
2019-05-17T17:30:14.487Z,96579.98
2019-05-17T17:32:42.883Z,96577.06
2019-05-17T17:35:11.537Z,96575.92
2019-05-17T17:37:39.944Z,96574.25
2019-05-17T17:40:08.980Z,96572.34
2019-05-17T17:42:39.063Z,96571.86
2019-05-17T17:45:08.459Z,96565.28
2019-05-17T17:47:36.939Z,96569.36
2019-05-17T17:50:06.909Z,96573.06
2019-05-17T17:52:35.405Z,96578.06
2019-05-17T17:55:04.731Z,96580.26
2019-05-17T17:57:33.072Z,96583.41
2019-05-17T18:00:01.944Z,96584.19
2019-05-17T18:02:30.432Z,96577.20
2019-05-17T18:04:58.827Z,96574.44
2019-05-17T18:07:27.163Z,96576.02
2019-05-17T18:09:55.547Z,96579.02
2019-05-17T18:12:23.965Z,96576.16
2019-05-17T18:14:52.340Z,96578.64
2019-05-17T18:17:20.692Z,96584.15
2019-05-17T18:19:49.017Z,96586.59
2019-05-17T18:22:18.045Z,96597.79
2019-05-17T18:24:46.461Z,96600.36
2019-05-17T18:27:15.307Z,96606.44
2019-05-17T18:29:43.653Z,96608.17
2019-05-17T18:32:12.314Z,96610.31
2019-05-17T18:34:40.712Z,96612.86
2019-05-17T18:37:09.390Z,96615.58
2019-05-17T18:39:38.064Z,96611.67
2019-05-17T18:42:06.627Z,96613.78
2019-05-17T18:44:37.035Z,96615.67
2019-05-17T18:47:05.780Z,96612.31
2019-05-17T18:49:34.219Z,96613.23
2019-05-17T18:52:02.807Z,96609.16
2019-05-17T18:54:31.229Z,96607.88
2019-05-17T18:56:59.695Z,96611.95
2019-05-17T18:59:28.432Z,96620.38
2019-05-17T19:01:56.712Z,96620.44
2019-05-17T19:04:25.129Z,96625.97
2019-05-17T19:06:53.604Z,96627.11
2019-05-17T19:09:22.090Z,96630.61
2019-05-17T19:11:50.915Z,96632.33
2019-05-17T19:14:20.259Z,96628.90
2019-05-17T19:16:48.730Z,96631.91
2019-05-17T19:19:17.161Z,96633.88
2019-05-17T19:21:45.572Z,96634.23
2019-05-17T19:24:15.763Z,96645.95
2019-05-17T19:26:44.242Z,96658.55
2019-05-17T19:29:12.908Z,96667.91
2019-05-17T19:31:41.349Z,96675.80
2019-05-17T19:34:09.905Z,96684.67
2019-05-17T19:36:41.559Z,96685.31
2019-05-17T19:39:11.082Z,96687.04
2019-05-17T19:41:39.565Z,96691.83
2019-05-17T19:44:08.127Z,96696.09
2019-05-17T19:46:36.852Z,96699.20
2019-05-17T19:49:05.348Z,96697.98
2019-05-17T19:51:33.863Z,96701.66
2019-05-17T19:54:02.331Z,96704.94
2019-05-17T19:56:31.053Z,96706.53
2019-05-17T19:58:59.452Z,96699.66
2019-05-17T20:01:27.865Z,96706.60
2019-05-17T20:03:56.337Z,96702.48
2019-05-17T20:06:24.842Z,96697.26
2019-05-17T20:08:53.226Z,96696.34
2019-05-17T20:11:33.690Z,96698.83
2019-05-17T20:13:51.858Z,96696.10
2019-05-17T20:16:22.237Z,96692.46
2019-05-17T20:18:50.745Z,96689.26
2019-05-17T20:21:19.651Z,96694.67
2019-05-17T20:23:48.087Z,96684.31
2019-05-17T20:26:18.550Z,96682.05
2019-05-17T20:28:47.166Z,96683.74
2019-05-17T20:31:21.623Z,96685.09
2019-05-17T20:33:50.071Z,96690.86
2019-05-17T20:36:18.843Z,96696.03
2019-05-17T20:38:47.405Z,96689.19
2019-05-17T20:41:15.738Z,96696.51
2019-05-17T20:43:44.257Z,96722.83
2019-05-17T20:46:12.619Z,96735.06
2019-05-17T20:48:40.916Z,96732.30
2019-05-17T20:51:09.326Z,96731.28
2019-05-17T20:53:37.742Z,96723.87
2019-05-17T20:56:06.108Z,96725.56
2019-05-17T20:58:34.702Z,96723.42
2019-05-17T21:01:03.160Z,96722.74
2019-05-17T21:03:31.530Z,96721.05
2019-05-17T21:05:59.843Z,96714.63
2019-05-17T21:08:28.339Z,96708.95
2019-05-17T21:10:56.848Z,96708.83
2019-05-17T21:13:25.245Z,96708.37
2019-05-17T21:15:53.634Z,96708.84
2019-05-17T21:18:22.027Z,96715.75
2019-05-17T21:20:50.353Z,96708.42
2019-05-17T21:23:18.746Z,96701.20
2019-05-17T21:25:47.319Z,96702.81
2019-05-17T21:28:16.086Z,96702.14
2019-05-17T21:30:44.397Z,96696.72
2019-05-17T21:33:12.824Z,96693.00
2019-05-17T21:35:41.235Z,96690.30
2019-05-17T21:38:09.533Z,96693.42
2019-05-17T21:40:37.843Z,96690.83
2019-05-17T21:43:06.233Z,96680.79
2019-05-17T21:45:34.544Z,96685.97
2019-05-17T21:48:03.091Z,96683.94
2019-05-17T21:50:31.397Z,96676.50
2019-05-17T21:52:59.768Z,96685.30
2019-05-17T21:55:28.173Z,96685.30
2019-05-17T21:57:56.568Z,96688.94
2019-05-17T22:00:50.908Z,96680.59
2019-05-17T22:03:19.299Z,96675.86
2019-05-17T22:05:47.773Z,96675.44
2019-05-17T22:08:16.153Z,96672.81
2019-05-17T22:10:44.662Z,96668.42
2019-05-17T22:13:13.047Z,96672.63
2019-05-17T22:15:41.387Z,96668.31
2019-05-17T22:18:09.712Z,96672.03
2019-05-17T22:20:38.147Z,96680.94
2019-05-17T22:23:06.443Z,96682.30
2019-05-17T22:25:35.051Z,96679.47
2019-05-17T22:28:03.458Z,96675.64
2019-05-17T22:30:31.777Z,96680.26
2019-05-17T22:33:00.150Z,96683.75
2019-05-17T22:35:28.548Z,96682.09
2019-05-17T22:37:56.949Z,96672.50
2019-05-17T22:40:25.506Z,96674.31
2019-05-17T22:42:53.837Z,96685.36
2019-05-17T22:45:22.169Z,96677.89
2019-05-17T22:47:50.671Z,96676.77
2019-05-17T22:50:19.097Z,96677.66
2019-05-17T22:52:47.421Z,96671.13
2019-05-17T22:55:15.910Z,96671.02
2019-05-17T22:57:44.435Z,96675.44
2019-05-17T23:00:13.004Z,96676.31
2019-05-17T23:02:41.308Z,96679.05
2019-05-17T23:05:09.814Z,96679.48
2019-05-17T23:07:38.187Z,96677.00
2019-05-17T23:10:06.659Z,96683.88
2019-05-17T23:12:34.968Z,96682.19
2019-05-17T23:15:04.643Z,96685.69
2019-05-17T23:17:32.946Z,96687.72
2019-05-17T23:20:01.241Z,96694.80
2019-05-17T23:22:29.576Z,96702.47
2019-05-17T23:24:58.059Z,96701.11
2019-05-17T23:27:26.360Z,96699.44
2019-05-17T23:29:54.734Z,96698.98
2019-05-17T23:32:23.130Z,96692.57
2019-05-17T23:34:51.440Z,96695.70
2019-05-17T23:37:19.931Z,96698.17
2019-05-17T23:39:48.292Z,96698.55
2019-05-17T23:42:16.753Z,96700.00
2019-05-17T23:44:45.074Z,96701.59
2019-05-17T23:47:13.409Z,96698.09
2019-05-17T23:49:43.461Z,96698.66
2019-05-17T23:52:11.818Z,96701.02
2019-05-17T23:54:40.127Z,96701.34
2019-05-17T23:57:08.610Z,96698.77
2019-05-17T23:59:36.984Z,96698.64
